createdAt,value
2022-11-29T00:01:42.363Z,100408.62
2022-11-29T00:04:45.007Z,100404.25
2022-11-29T00:07:47.648Z,100411.25
2022-11-29T00:10:50.338Z,100400.91
2022-11-29T00:13:52.866Z,100399.19
2022-11-29T00:17:02.673Z,100395.81
2022-11-29T00:20:06.310Z,100381.91
2022-11-29T00:23:09.225Z,100389.72
2022-11-29T00:26:11.624Z,100391.50
2022-11-29T00:29:14.370Z,100385.41
2022-11-29T00:32:16.864Z,100394.13
2022-11-29T00:35:19.320Z,100387.13
2022-11-29T00:38:22.022Z,100391.44
2022-11-29T00:41:24.588Z,100384.47
2022-11-29T00:44:27.067Z,100389.75
2022-11-29T00:47:29.459Z,100391.44
2022-11-29T00:50:32.041Z,100398.28
2022-11-29T00:53:35.773Z,100387.91
2022-11-29T00:56:38.210Z,100386.13
2022-11-29T00:59:40.534Z,100386.13
2022-11-29T01:02:43.015Z,100387.03
2022-11-29T01:05:46.212Z,100385.22
2022-11-29T01:08:49.827Z,100387.00
2022-11-29T01:11:52.252Z,100386.19
2022-11-29T01:14:54.725Z,100387.81
2022-11-29T01:17:57.056Z,100382.59
2022-11-29T01:21:20.488Z,100386.97
2022-11-29T01:24:23.071Z,100382.63
2022-11-29T01:27:25.466Z,100386.91
2022-11-29T01:30:27.926Z,100380.00
2022-11-29T01:33:30.245Z,100378.22
2022-11-29T01:36:33.280Z,100373.13
2022-11-29T01:39:35.611Z,100367.94
2022-11-29T01:42:38.090Z,100367.09
2022-11-29T01:45:40.967Z,100368.03
2022-11-29T01:48:43.519Z,100364.59
2022-11-29T01:51:51.372Z,100358.66
2022-11-29T01:54:58.858Z,100355.25
2022-11-29T01:58:01.424Z,100357.94
2022-11-29T02:01:03.855Z,100364.16
2022-11-29T02:04:06.869Z,100358.09
2022-11-29T02:07:09.835Z,100353.91
2022-11-29T02:10:12.751Z,100354.84
2022-11-29T02:13:44.289Z,100350.59
2022-11-29T02:16:57.538Z,100354.06
2022-11-29T02:20:09.169Z,100352.41
2022-11-29T02:23:14.725Z,100353.28
2022-11-29T02:26:47.823Z,100353.28
2022-11-29T02:29:56.372Z,100364.62
2022-11-29T02:33:34.094Z,100368.09
2022-11-29T02:37:11.510Z,100362.94
2022-11-29T02:40:44.522Z,100363.88
2022-11-29T02:44:17.719Z,100377.84
2022-11-29T02:48:01.485Z,100369.19
2022-11-29T02:51:16.238Z,100375.31
2022-11-29T02:54:30.638Z,100378.81
2022-11-29T02:57:41.738Z,100388.44
2022-11-29T03:01:19.253Z,100385.84
2022-11-29T03:04:47.972Z,100391.97
2022-11-29T03:08:27.502Z,100397.31
2022-11-29T03:11:29.897Z,100400.84
2022-11-29T03:14:56.667Z,100400.91
2022-11-29T03:18:10.015Z,100400.97
2022-11-29T03:21:23.512Z,100405.34
2022-11-29T03:24:58.099Z,100410.59
2022-11-29T03:28:31.040Z,100402.00
2022-11-29T03:31:40.929Z,100409.03
2022-11-29T03:35:14.000Z,100420.37
2022-11-29T03:38:28.763Z,100415.22
2022-11-29T03:41:55.729Z,100410.91
2022-11-29T03:45:08.002Z,100415.31
2022-11-29T03:48:13.051Z,100408.34
2022-11-29T03:51:22.227Z,100411.03
2022-11-29T03:54:56.267Z,100414.50
2022-11-29T03:58:13.885Z,100417.16
2022-11-29T04:01:22.152Z,100418.91
2022-11-29T04:04:43.151Z,100418.97
2022-11-29T04:08:01.251Z,100416.44
2022-11-29T04:11:28.954Z,100415.63
2022-11-29T04:14:34.272Z,100420.00
2022-11-29T04:18:10.526Z,100417.44
2022-11-29T04:21:31.301Z,100425.28
2022-11-29T04:24:46.939Z,100424.41
2022-11-29T04:27:58.207Z,100427.03
2022-11-29T04:31:29.186Z,100440.06
2022-11-29T04:34:59.342Z,100436.59
2022-11-29T04:38:39.021Z,100433.19
2022-11-29T04:42:03.253Z,100442.66
2022-11-29T04:45:17.769Z,100444.34
2022-11-29T04:48:59.305Z,100439.03
2022-11-29T04:52:16.951Z,100444.22
2022-11-29T04:55:35.810Z,100452.06
2022-11-29T04:58:50.846Z,100450.25
2022-11-29T05:02:20.310Z,100457.16
2022-11-29T05:05:50.991Z,100456.25
2022-11-29T05:08:59.361Z,100460.59
2022-11-29T05:12:13.680Z,100460.59
2022-11-29T05:15:22.098Z,100457.94
2022-11-29T05:18:39.737Z,100460.53
2022-11-29T05:21:47.981Z,100468.38
2022-11-29T05:25:21.176Z,100467.53
2022-11-29T05:39:20.924Z,100468.59
2022-11-29T05:42:47.940Z,100460.91
2022-11-29T05:46:00.287Z,100466.22
2022-11-29T05:49:24.282Z,100473.25
2022-11-29T05:52:35.699Z,100464.63
2022-11-29T05:55:46.834Z,100466.31
2022-11-29T05:58:58.644Z,100469.09
2022-11-29T06:02:19.335Z,100470.00
2022-11-29T06:05:57.268Z,100466.53
2022-11-29T06:09:23.345Z,100474.41
2022-11-29T06:12:27.100Z,100467.50
2022-11-29T06:15:37.997Z,100468.44
2022-11-29T06:18:40.155Z,100465.94
2022-11-29T06:21:54.608Z,100473.81
2022-11-29T06:25:15.724Z,100473.81
2022-11-29T06:28:33.936Z,100473.91
2022-11-29T06:31:46.664Z,100473.84
2022-11-29T06:34:54.598Z,100485.13
2022-11-29T06:37:58.666Z,100492.94
2022-11-29T06:41:02.408Z,100491.19
2022-11-29T06:44:06.205Z,100498.09
2022-11-29T06:47:19.169Z,100495.44
2022-11-29T06:50:48.021Z,100496.25
2022-11-29T06:54:08.339Z,100502.25
2022-11-29T06:57:10.528Z,100505.66
2022-11-29T07:00:18.345Z,100507.25
2022-11-29T07:03:36.614Z,100504.56
2022-11-29T07:06:39.249Z,100513.06
2022-11-29T07:09:43.515Z,100514.72
2022-11-29T07:12:47.979Z,100508.75
2022-11-29T07:16:11.921Z,100511.31
2022-11-29T07:19:28.008Z,100519.06
2022-11-29T07:22:47.399Z,100521.56
2022-11-29T07:26:01.796Z,100529.28
2022-11-29T07:29:19.946Z,100523.31
2022-11-29T07:32:27.769Z,100522.34
2022-11-29T07:35:47.869Z,100519.75
2022-11-29T07:39:11.167Z,100519.81
2022-11-29T07:42:37.421Z,100521.41
2022-11-29T07:45:40.214Z,100518.63
2022-11-29T07:48:42.822Z,100522.09
2022-11-29T07:51:45.259Z,100520.22
2022-11-29T07:54:47.847Z,100522.75
2022-11-29T07:57:50.744Z,100536.72
2022-11-29T08:00:53.084Z,100528.87
2022-11-29T08:03:55.321Z,100523.62
2022-11-29T08:07:01.136Z,100522.72
2022-11-29T08:10:05.110Z,100514.78
2022-11-29T08:13:07.284Z,100517.44
2022-11-29T08:16:09.561Z,100505.00
2022-11-29T08:19:13.021Z,100513.56
2022-11-29T08:22:15.212Z,100514.31
2022-11-29T08:25:17.518Z,100512.66
2022-11-29T08:28:20.090Z,100512.53
2022-11-29T08:31:22.558Z,100510.78
2022-11-29T08:34:25.557Z,100517.38
2022-11-29T08:37:27.762Z,100515.81
2022-11-29T08:40:30.059Z,100522.84
2022-11-29T08:43:32.617Z,100526.19
2022-11-29T08:46:53.410Z,100522.66
2022-11-29T08:50:01.404Z,100523.59
2022-11-29T08:53:22.372Z,100529.44
2022-11-29T08:57:10.044Z,100535.44
2022-11-29T08:59:46.818Z,100537.69
2022-11-29T09:02:49.587Z,100538.37
2022-11-29T09:05:53.062Z,100539.16
2022-11-29T09:08:57.109Z,100542.63
2022-11-29T09:11:59.302Z,100543.41
2022-11-29T09:15:03.072Z,100544.19
2022-11-29T09:18:06.080Z,100543.25
2022-11-29T09:21:10.268Z,100534.25
2022-11-29T09:24:12.889Z,100529.59
2022-11-29T09:27:15.113Z,100529.38
2022-11-29T09:30:23.332Z,100522.25
2022-11-29T09:33:25.971Z,100523.91
2022-11-29T09:36:29.787Z,100524.53
2022-11-29T09:39:32.284Z,100529.06
2022-11-29T09:42:58.494Z,100522.72
2022-11-29T09:46:18.400Z,100519.84
2022-11-29T09:49:49.549Z,100518.47
2022-11-29T09:53:17.110Z,100512.59
2022-11-29T09:56:40.868Z,100518.34
2022-11-29T09:59:48.212Z,100510.50
2022-11-29T10:03:14.520Z,100514.13
2022-11-29T10:06:23.781Z,100518.25
2022-11-29T10:09:41.142Z,100516.78
2022-11-29T10:12:57.004Z,100518.53
2022-11-29T10:16:24.203Z,100516.62
2022-11-29T10:19:44.848Z,100514.38
2022-11-29T10:22:59.157Z,100510.88
2022-11-29T10:26:01.408Z,100513.88
2022-11-29T10:29:04.218Z,100504.00
2022-11-29T10:32:14.464Z,100510.47
2022-11-29T10:35:20.198Z,100507.13
2022-11-29T10:38:31.951Z,100513.00
2022-11-29T10:41:37.275Z,100509.56
2022-11-29T10:44:39.435Z,100501.69
2022-11-29T10:47:41.744Z,100505.00
2022-11-29T10:50:45.821Z,100500.41
2022-11-29T10:53:52.510Z,100502.38
2022-11-29T10:56:57.685Z,100503.91
2022-11-29T10:59:59.939Z,100505.81
2022-11-29T11:03:27.546Z,100503.62
2022-11-29T11:06:47.192Z,100503.62
2022-11-29T11:09:53.486Z,100499.16
2022-11-29T11:13:07.346Z,100498.16
2022-11-29T11:16:26.825Z,100498.91
2022-11-29T11:19:33.744Z,100503.31
2022-11-29T11:22:40.000Z,100494.75
2022-11-29T11:25:42.243Z,100500.94
2022-11-29T11:28:47.466Z,100493.34
2022-11-29T11:31:57.414Z,100487.84
2022-11-29T11:35:01.626Z,100491.91
2022-11-29T11:38:05.459Z,100488.97
2022-11-29T11:41:18.602Z,100489.94
2022-11-29T11:44:53.727Z,100496.88
2022-11-29T11:47:59.375Z,100489.94
2022-11-29T11:51:02.147Z,100487.38
2022-11-29T11:54:04.557Z,100487.22
2022-11-29T11:57:19.744Z,100483.66
2022-11-29T12:01:09.384Z,100481.78
2022-11-29T12:04:20.580Z,100467.78
2022-11-29T12:07:59.853Z,100477.00
2022-11-29T12:11:02.791Z,100482.81
2022-11-29T12:14:18.947Z,100484.75
2022-11-29T12:17:31.938Z,100488.13
2022-11-29T12:20:40.043Z,100487.22
2022-11-29T12:23:49.460Z,100489.06
2022-11-29T12:26:58.297Z,100487.44
2022-11-29T12:30:01.233Z,100490.06
2022-11-29T12:33:24.937Z,100480.50
2022-11-29T12:36:55.289Z,100492.59
2022-11-29T12:40:06.136Z,100491.84
2022-11-29T12:43:24.379Z,100487.59
2022-11-29T12:46:29.197Z,100477.84
2022-11-29T12:49:46.022Z,100490.97
2022-11-29T12:53:27.264Z,100483.97
2022-11-29T12:56:37.902Z,100491.06
2022-11-29T13:00:14.354Z,100487.53
2022-11-29T13:03:59.142Z,100481.53
2022-11-29T13:07:13.909Z,100484.91
2022-11-29T13:10:46.518Z,100486.78
2022-11-29T13:14:40.522Z,100486.03
2022-11-29T13:17:44.264Z,100483.50
2022-11-29T13:20:58.146Z,100491.22
2022-11-29T13:24:10.239Z,100492.00
2022-11-29T13:27:24.441Z,100497.31
2022-11-29T13:30:27.413Z,100500.00
2022-11-29T13:33:52.107Z,100496.56
2022-11-29T13:37:01.725Z,100496.56
2022-11-29T13:40:34.225Z,100500.09
2022-11-29T13:43:52.157Z,100503.69
2022-11-29T13:47:00.366Z,100497.47
2022-11-29T13:50:37.842Z,100503.69
2022-11-29T13:53:48.576Z,100509.72
2022-11-29T13:57:03.028Z,100506.22
2022-11-29T14:00:06.116Z,100508.94
2022-11-29T14:03:23.747Z,100503.78
2022-11-29T14:06:48.293Z,100503.03
2022-11-29T14:09:58.489Z,100503.88
2022-11-29T14:13:02.174Z,100498.63
2022-11-29T14:16:07.462Z,100496.78
2022-11-29T14:19:10.071Z,100503.00
2022-11-29T14:22:21.768Z,100503.03
2022-11-29T14:25:50.562Z,100496.19
2022-11-29T14:28:57.547Z,100498.78
2022-11-29T14:32:00.196Z,100491.88
2022-11-29T14:35:05.191Z,100494.56
2022-11-29T14:38:25.051Z,100498.03
2022-11-29T14:41:56.208Z,100492.91
2022-11-29T14:45:04.954Z,100492.03
2022-11-29T14:48:26.558Z,100498.97
2022-11-29T14:51:34.410Z,100499.88
2022-11-29T14:54:54.411Z,100502.56
2022-11-29T14:58:04.314Z,100503.62
2022-11-29T15:01:10.649Z,100487.94
2022-11-29T15:04:13.811Z,100488.78
2022-11-29T15:07:20.120Z,100491.44
2022-11-29T15:10:30.077Z,100497.50
2022-11-29T15:13:38.668Z,100494.13
2022-11-29T15:16:56.387Z,100502.78
2022-11-29T15:20:29.706Z,100500.81
2022-11-29T15:23:41.702Z,100496.50
2022-11-29T15:26:58.207Z,100501.72
2022-11-29T15:30:38.688Z,100508.66
2022-11-29T15:33:42.902Z,100500.75
2022-11-29T15:36:45.120Z,100501.66
2022-11-29T15:39:47.272Z,100501.94
2022-11-29T15:43:00.254Z,100500.28
2022-11-29T15:46:02.703Z,100500.41
2022-11-29T15:49:34.704Z,100507.41
2022-11-29T15:52:38.597Z,100509.34
2022-11-29T15:55:41.337Z,100505.69
2022-11-29T15:58:45.591Z,100510.88
2022-11-29T16:01:52.902Z,100513.56
2022-11-29T16:04:58.377Z,100516.16
2022-11-29T16:08:14.534Z,100524.06
2022-11-29T16:11:21.253Z,100524.84
2022-11-29T16:14:30.739Z,100523.03
2022-11-29T16:17:35.334Z,100523.94
2022-11-29T16:20:37.717Z,100529.22
2022-11-29T16:23:44.822Z,100532.75
2022-11-29T16:26:49.488Z,100531.91
2022-11-29T16:29:55.331Z,100538.97
2022-11-29T16:33:03.693Z,100529.50
2022-11-29T16:36:19.366Z,100538.19
2022-11-29T16:39:25.420Z,100537.44
2022-11-29T16:42:33.769Z,100528.81
2022-11-29T16:45:47.511Z,100539.25
2022-11-29T16:48:51.433Z,100535.72
2022-11-29T16:51:54.678Z,100543.62
2022-11-29T16:54:57.876Z,100544.53
2022-11-29T16:58:00.306Z,100536.72
2022-11-29T17:01:25.837Z,100552.47
2022-11-29T17:04:28.414Z,100550.78
2022-11-29T17:07:33.965Z,100544.63
2022-11-29T17:10:36.713Z,100549.00
2022-11-29T17:13:39.542Z,100555.94
2022-11-29T17:16:41.887Z,100553.31
2022-11-29T17:19:44.392Z,100555.94
2022-11-29T17:22:46.797Z,100550.78
2022-11-29T17:26:09.425Z,100560.34
2022-11-29T17:29:13.437Z,100561.22
2022-11-29T17:32:17.929Z,100571.75
2022-11-29T17:35:22.569Z,100568.34
2022-11-29T17:38:24.900Z,100573.66
2022-11-29T17:41:28.553Z,100573.63
2022-11-29T17:44:30.845Z,100578.94
2022-11-29T17:47:34.015Z,100578.91
2022-11-29T17:50:39.571Z,100585.03
2022-11-29T17:53:42.240Z,100585.13
2022-11-29T17:56:44.937Z,100584.22
2022-11-29T17:59:47.874Z,100589.56
2022-11-29T18:02:51.602Z,100593.06
2022-11-29T18:05:53.904Z,100594.84
2022-11-29T18:09:00.283Z,100602.75
2022-11-29T18:12:03.119Z,100603.72
2022-11-29T18:15:06.198Z,100601.97
2022-11-29T18:18:08.877Z,100599.37
2022-11-29T18:21:12.690Z,100608.09
2022-11-29T18:24:15.231Z,100605.44
2022-11-29T18:27:17.887Z,100599.31
2022-11-29T18:30:20.726Z,100608.09
2022-11-29T18:33:24.492Z,100597.66
2022-11-29T18:36:33.308Z,100598.56
2022-11-29T18:39:35.869Z,100608.22
2022-11-29T18:42:39.390Z,100608.22
2022-11-29T18:45:42.245Z,100597.84
2022-11-29T18:48:46.411Z,100604.81
2022-11-29T18:51:50.569Z,100599.53
2022-11-29T18:54:54.495Z,100600.38
2022-11-29T18:57:57.133Z,100600.50
2022-11-29T19:01:07.636Z,100597.03
2022-11-29T19:04:13.762Z,100599.72
2022-11-29T19:07:17.321Z,100602.28
2022-11-29T19:10:20.169Z,100602.34
2022-11-29T19:13:23.053Z,100603.25
2022-11-29T19:16:26.772Z,100603.31
2022-11-29T19:19:29.219Z,100601.53
2022-11-29T19:22:32.686Z,100604.28
2022-11-29T19:25:35.616Z,100606.87
2022-11-29T19:28:40.599Z,100606.03
2022-11-29T19:31:43.908Z,100606.09
2022-11-29T19:34:47.401Z,100601.78
2022-11-29T19:37:50.271Z,100610.47
2022-11-29T19:40:53.341Z,100609.59
2022-11-29T19:43:58.273Z,100606.16
2022-11-29T19:47:01.203Z,100601.78
2022-11-29T19:50:04.107Z,100604.38
2022-11-29T19:53:07.060Z,100606.19
2022-11-29T19:56:13.824Z,100605.31
2022-11-29T19:59:16.997Z,100608.88
2022-11-29T20:02:28.487Z,100608.88
2022-11-29T20:05:32.672Z,100607.97
2022-11-29T20:15:34.782Z,100609.78
2022-11-29T20:22:56.236Z,100614.94
2022-11-29T20:29:37.877Z,100605.47
2022-11-29T20:36:49.697Z,100609.84
2022-11-29T20:40:30.052Z,100602.94
2022-11-29T20:43:42.280Z,100599.47
2022-11-29T20:46:45.334Z,100602.16
2022-11-29T20:49:49.378Z,100598.72
2022-11-29T20:53:19.724Z,100601.38
2022-11-29T20:56:22.692Z,100603.16
2022-11-29T20:59:25.068Z,100604.91
2022-11-29T21:02:28.494Z,100599.69
2022-11-29T21:05:31.479Z,100603.16
2022-11-29T21:08:34.152Z,100596.19
2022-11-29T21:11:37.021Z,100601.41
2022-11-29T21:14:39.671Z,100595.28
2022-11-29T21:17:44.028Z,100596.19
2022-11-29T21:21:06.996Z,100602.28
2022-11-29T21:24:31.503Z,100604.00
2022-11-29T21:27:35.065Z,100602.31
2022-11-29T21:30:38.171Z,100601.41
2022-11-29T21:33:40.696Z,100602.31
2022-11-29T21:36:44.566Z,100601.44
2022-11-29T21:39:49.366Z,100602.28
2022-11-29T21:42:51.756Z,100600.59
2022-11-29T21:45:54.133Z,100592.87
2022-11-29T21:48:56.565Z,100601.41
2022-11-29T21:52:01.296Z,100595.34
2022-11-29T21:55:03.945Z,100596.22
2022-11-29T21:58:06.245Z,100595.34
2022-11-29T22:01:11.348Z,100600.56
2022-11-29T22:04:13.875Z,100590.06
2022-11-29T22:07:16.289Z,100598.78
2022-11-29T22:10:18.698Z,100605.72
2022-11-29T22:13:21.320Z,100605.72
2022-11-29T22:16:23.994Z,100599.63
2022-11-29T22:19:32.057Z,100602.25
2022-11-29T22:22:34.486Z,100599.69
2022-11-29T22:25:36.736Z,100600.56
2022-11-29T22:28:39.347Z,100606.63
2022-11-29T22:31:43.047Z,100604.97
2022-11-29T22:34:45.728Z,100604.97
2022-11-29T22:37:48.316Z,100602.34
2022-11-29T22:40:50.725Z,100603.19
2022-11-29T22:43:53.470Z,100598.84
2022-11-29T22:46:56.270Z,100605.75
2022-11-29T22:49:58.752Z,100599.69
2022-11-29T22:53:01.299Z,100605.75
2022-11-29T22:56:06.276Z,100605.75
2022-11-29T22:59:09.974Z,100604.91
2022-11-29T23:02:12.864Z,100606.66
2022-11-29T23:05:15.283Z,100601.50
2022-11-29T23:08:18.061Z,100596.28
2022-11-29T23:11:26.791Z,100597.19
2022-11-29T23:14:29.141Z,100598.06
2022-11-29T23:17:31.582Z,100598.06
2022-11-29T23:20:33.873Z,100591.03
2022-11-29T23:23:36.893Z,100589.31
2022-11-29T23:26:41.459Z,100583.19
2022-11-29T23:29:44.371Z,100574.53
2022-11-29T23:32:46.755Z,100581.38
2022-11-29T23:35:51.337Z,100582.19
2022-11-29T23:38:54.137Z,100579.56
2022-11-29T23:41:56.558Z,100575.19
2022-11-29T23:44:58.895Z,100577.81
2022-11-29T23:48:01.225Z,100580.38
2022-11-29T23:51:03.727Z,100576.00
2022-11-29T23:54:06.359Z,100582.16
2022-11-29T23:57:08.797Z,100576.03
